Portada
METAR-TAF:

METAR-TAF

Aeropuertos :

Keetmanshoop, Namibia

latitud: 26-32S, longitud: 018-07E, altitud: 1067 m

Observación

El informe se hizo hace 12 minutos, a las 05:00 UTC
Viento 10 kt del norte-noreste
Temperatura 9°C
Humedad 37%
Presión 1024 hPa
Visibilidad 10 km o más
sin nubes por debajo de 1500 m y sin presencia de cumulonimbus.

METAR: FYKT 280500Z 03010KT CAVOK 09/M05 Q1024

Hora: 07:12 (05:12 UTC)

Pronóstico

El informe se hizo hace 7 horas y 12 minutos, a las 22:00 UTC
Pronóstico válido del 28 a las 00 UTC al 29 a las 00 UTC
Viento 6 kt del noreste
Visibilidad 10 km o más
sin nubes por debajo de 1500 m y sin presencia de cumulonimbus.

TAF: FYKT 272200Z 2800/2900 05006KT CAVOK

Observaciones y pronósticos meteorológicos de más de 4000 aeropuertos (mensajes METAR y TAF).

Los puntos amarillos y rojos representan las estaciones disponibles.

Ponga el ratón en el punto deseado para ver el nombre de la estación.

Haga clic para ver las observaciones y los pronósticos meteorológicos.

Para cambiar el mapa : haga clic en los botones verdes con una cruz de color negro para hacer un zoom, en el botón verde con un guión para alejar o en las flechas verdes para mapas adyacentes.


METAR-TAF: